Nearby METAR Reports

 

KIMT - Iron Mountain, Michigan, USA
Distance from station: 0 29mi, 47km
Updated: Fri, 03-Feb-2023 10:54pm CST
Overcast
Overcast
 Wind from S
Wind: S 8 mph , 13 km/h
Temperature: 3°F , -16°C
Wind Chill: -10°F , -23°C
Dew Point: -9°F , -23°C
Humidity: 55%
Barometer: 30.28 inHg , 1025.4 hPa
Clouds: Overcast
Visibility: 10 miles , 16 km
Cloud details: Partly cloudy 5000 ft
Overcast 6500 ft
2023/02/04 04:54 KIMT 040454Z AUTO 17007KT 10SM SCT050 OVC065 M16/M23 A3028 RMK AO2 SLP289 T11611228
KMNM - Menominee, Michigan, USA
Distance from station: SE 31mi, 51km
Updated: Fri, 03-Feb-2023 10:57pm CST
Overcast
Overcast
 
Temperature: 5°F , -15°C
Dew Point: -6°F , -21°C
Humidity: 60%
Barometer: 30.41 inHg , 1029.8 hPa
Clouds: Overcast
Visibility: 10 miles , 16 km
Cloud details: Overcast 5000 ft
2023/02/04 04:57 KMNM 040457Z AUTO 10SM OVC050 M15/M21 A3041 RMK AO2 SLP320 T11501206 410941228 FZRANO PNO $
 
KOCQ - Oconto, Wisconsin, USA
Distance from station: SSE 38mi, 61km
Updated: Fri, 03-Feb-2023 10:55pm CST
Overcast
Overcast
 Wind from SSW
Wind: SSW 7 mph , 11 km/h
Temperature: 5°F , -15°C
Wind Chill: -7°F , -22°C
Dew Point: -8°F , -22°C
Humidity: 55%
Barometer: 30.41 inHg , 1029.8 hPa
Clouds: Overcast
Visibility: 10 miles , 16 km
Cloud details: Mostly cloudy 6000 ft
Overcast 11000 ft
2023/02/04 04:55 KOCQ 040455Z AUTO 21006KT 10SM BKN060 OVC110 M15/M22 A3041 RMK AO1 T11521216
KEZS - Shawano Muni, Wisconsin, USA
Distance from station: SSW 48mi, 77km
Updated: Wed, 01-Feb-2023 7:55am CST
NOT Current
Clear
Clear
 Wind from calm
Wind: Calm
Temperature: 1°F , -17°C
Dew Point: -2°F , -19°C
Humidity: 85%
Barometer: 30.19 inHg , 1022.4 hPa
Clouds: Clear
Visibility: 10 miles , 16 km
2023/02/01 13:55 KEZS 011355Z AUTO 00000KT 10SM CLR M17/M19 A3019 RMK AO2 T11701189
 
KAIG - Antigo/Langlade, Wisconsin, USA
Distance from station: WSW 51mi, 82km
Updated: Fri, 03-Feb-2023 10:55pm CST
Overcast
Overcast
 Wind from SSE
Wind: SSE 12 mph , 19 km/h
Temperature: 1°F , -17°C
Wind Chill: -16°F , -27°C
Dew Point: -11°F , -24°C
Humidity: 55%
Barometer: 30.26 inHg , 1024.7 hPa
Clouds: Overcast
Visibility: 10 miles , 16 km
Cloud details: Overcast 4400 ft
2023/02/04 04:55 KAIG 040455Z AUTO 16010KT 10SM OVC044 M17/M24 A3026 RMK AO2 T11741237
KSUE - Sturgeon Bay, Wisconsin, USA
Distance from station: SE 51mi, 82km
Updated: Fri, 03-Feb-2023 10:56pm CST
Overcast
Overcast
 Wind from SW
Wind: SW 10 mph , 17 km/h
Temperature: 5°F , -15°C
Wind Chill: -10°F , -23°C
Dew Point: -6°F , -21°C
Humidity: 60%
Barometer: 30.41 inHg , 1029.8 hPa
Clouds: Overcast
Visibility: 10 miles , 16 km
Cloud details: Overcast 6000 ft
2023/02/04 04:56 KSUE 040456Z AUTO 22009KT 10SM OVC060 M15/M21 A3041 RMK AO2 SLP315 T11501211 FZRANO
 
KESC - Escanaba, Michigan, USA
Distance from station: ENE 56mi, 90km
Updated: Fri, 03-Feb-2023 10:56pm CST
Overcast
Overcast
 
Temperature: 7°F , -14°C
Dew Point: -6°F , -21°C
Humidity: 56%
Barometer: 30.39 inHg , 1029.1 hPa
Clouds: Overcast
Visibility: 10 miles , 16 km
Cloud details: Overcast 6000 ft
2023/02/04 04:56 KESC 040456Z AUTO 10SM OVC060 M14/M21 A3039 RMK AO2 SLP309 T11391211 411001228 FZRANO
KCLI - Clintonville, Wisconsin, USA
Distance from station: SSW 62mi, 99km
Updated: Fri, 03-Feb-2023 10:55pm CST
Overcast
Overcast
 Wind from S
Wind: S 10 mph , 17 km/h
Temperature: 3°F , -16°C
Wind Chill: -12°F , -24°C
Dew Point: -9°F , -23°C
Humidity: 55%
Barometer: 30.39 inHg , 1029.1 hPa
Clouds: Overcast
Visibility: 10 miles , 16 km
Cloud details: Overcast 5500 ft
2023/02/04 04:55 KCLI 040455Z AUTO 18009KT 10SM OVC055 M16/M23 A3039 RMK AO2 T11571228
 
KGRB - Ashwaubenon, Wisconsin, USA
Distance from station: S 63mi, 102km
Updated: Fri, 03-Feb-2023 10:53pm CST
Overcast
Overcast
 Wind from S
Wind: S 12 mph , 19 km/h, Gust: 20 mph , 31 km/h
Temperature: 5°F , -15°C
Wind Chill: -11°F , -24°C
Dew Point: -8°F , -22°C
Humidity: 55%
Barometer: 30.40 inHg , 1029.5 hPa
Clouds: Overcast
Visibility: 10 miles , 16 km
Cloud details: Overcast 7000 ft
2023/02/04 04:53 KGRB 040453Z AUTO 18010G17KT 10SM OVC070 M15/M22 A3040 RMK AO2 SLP314 T11501217
KEGV - Eagle River, Wisconsin, USA
Distance from station: NW 66mi, 107km
Updated: Fri, 03-Feb-2023 10:55pm CST
Overcast
Overcast
 Wind from S
Wind: S 6 mph , 9 km/h
Temperature: 1°F , -17°C
Wind Chill: -11°F , -24°C
Dew Point: -13°F , -25°C
Humidity: 50%
Barometer: 30.19 inHg , 1022.4 hPa
Clouds: Overcast
Visibility: 10 miles , 16 km
Cloud details: Mostly cloudy 4800 ft
Overcast 5000 ft
2023/02/04 04:55 KEGV 040455Z AUTO 18005KT 10SM BKN048 OVC050 M17/M25 A3019 RMK AO2 T11721246
 
KRHI - Rhinelander, Wisconsin, USA
Distance from station: WNW 68mi, 109km
Updated: Fri, 03-Feb-2023 10:53pm CST
Overcast
Overcast
 Wind from SSE
Wind: SSE 8 mph , 13 km/h
Temperature: 1°F , -17°C
Wind Chill: -13°F , -25°C
Dew Point: -13°F , -25°C
Humidity: 50%
Barometer: 30.20 inHg , 1022.7 hPa
Clouds: Overcast
Visibility: 10 miles , 16 km
Cloud details: Overcast 4100 ft
2023/02/04 04:53 KRHI 040453Z AUTO 16007KT 10SM OVC041 M17/M25 A3020 RMK AO2 SLP275 T11721250
KLNL - Land O Lakes, Wisconsin, USA
Distance from station: NW 74mi, 119km
Updated: Fri, 03-Feb-2023 10:55pm CST
Overcast
Overcast
 Wind from S
Wind: S 7 mph , 11 km/h
Temperature: 1°F , -17°C
Wind Chill: -12°F , -24°C
Dew Point: -11°F , -24°C
Humidity: 55%
Barometer: 30.19 inHg , 1022.4 hPa
Clouds: Overcast
Visibility: 10 miles , 16 km
Cloud details: Overcast 4700 ft
2023/02/04 04:55 KLNL 040455Z AUTO 17006KT 10SM OVC047 M17/M24 A3019 RMK AO2 T11661240
 
KSAW - Gwinn/Sawyer, Michigan, USA
Distance from station: NNE 74mi, 120km
Updated: Fri, 03-Feb-2023 10:58pm CST
Overcast
Overcast
 Wind from SSW
Wind: SSW 16 mph , 26 km/h
Temperature: 3°F , -16°C
Wind Chill: -16°F , -27°C
Dew Point: -8°F , -22°C
Humidity: 60%
Barometer: 30.26 inHg , 1024.7 hPa
Clouds: Overcast
Visibility: 7 miles , 11 km
Cloud details: Mostly cloudy 5500 ft
Overcast 6500 ft
2023/02/04 04:58 KSAW 040458Z AUTO 20014KT 7SM BKN055 OVC065 M16/M22 A3026 RMK AO2 T11651221